Time;durP1;ratioP1;P1;durP2;ratioP2;P2;SDS_P1;SDS_P2;PMS_P1;PMS_P2;Temp;Humidity;BMP_temperature;BMP_pressure;BME280_temperature;BME280_humidity;BME280_pressure;Samples;Min_cycle;Max_cycle;Signal;HPM_P1;HPM_P2
2021/05/05 00:02:10;;;;;;;3.42;1.65;;;8.90;99.90;;;;;;5071558;28;20040;-78
2021/05/05 00:04:36;;;;;;;3.72;1.60;;;8.80;99.90;;;;;;5062856;28;20434;-77
2021/05/05 00:07:03;;;;;;;3.42;2.08;;;8.80;99.90;;;;;;5057205;28;20059;-78
2021/05/05 00:09:29;;;;;;;3.80;1.65;;;8.80;99.90;;;;;;5069015;28;20029;-77
2021/05/05 00:11:55;;;;;;;4.05;2.38;;;8.80;99.90;;;;;;5052124;28;20041;-78
2021/05/05 00:14:22;;;;;;;4.13;2.38;;;8.90;99.90;;;;;;5052872;28;20033;-78
2021/05/05 00:16:49;;;;;;;4.57;2.53;;;8.90;99.90;;;;;;5062803;28;20033;-78
2021/05/05 00:19:16;;;;;;;4.85;2.63;;;9.00;99.90;;;;;;5067951;28;20037;-78
2021/05/05 00:21:43;;;;;;;8.70;2.72;;;9.00;99.90;;;;;;5052494;28;20045;-79
2021/05/05 00:24:10;;;;;;;2.45;2.03;;;9.10;99.90;;;;;;5066033;28;20048;-79
2021/05/05 00:26:37;;;;;;;5.05;2.92;;;9.10;99.90;;;;;;5066961;28;20056;-78
2021/05/05 00:29:04;;;;;;;5.68;2.65;;;9.10;99.90;;;;;;5057119;28;20031;-79
2021/05/05 00:31:30;;;;;;;4.97;2.38;;;9.20;99.90;;;;;;5067568;28;20055;-78
2021/05/05 00:33:57;;;;;;;3.25;1.55;;;9.10;99.90;;;;;;5051968;28;20049;-76
2021/05/05 00:36:23;;;;;;;2.85;1.60;;;9.10;99.90;;;;;;5052171;28;20029;-78
2021/05/05 00:38:49;;;;;;;3.90;1.73;;;9.10;99.90;;;;;;5059531;28;20421;-76
2021/05/05 00:41:18;;;;;;;2.42;1.60;;;9.00;99.90;;;;;;5052185;28;20378;-77
2021/05/05 00:43:44;;;;;;;3.13;1.55;;;9.00;99.90;;;;;;5051829;28;20040;-77
2021/05/05 00:46:11;;;;;;;3.22;1.70;;;9.00;99.90;;;;;;5052212;28;20051;-77
2021/05/05 00:48:37;;;;;;;5.43;1.52;;;8.90;99.90;;;;;;5051879;28;20036;-77
2021/05/05 00:51:04;;;;;;;3.88;2.10;;;9.00;99.90;;;;;;5059073;28;20067;-77
2021/05/05 00:53:31;;;;;;;2.95;1.60;;;8.90;99.90;;;;;;5051533;28;20029;-77
2021/05/05 00:55:58;;;;;;;3.97;1.90;;;8.90;99.90;;;;;;5050988;28;20041;-78
2021/05/05 00:58:24;;;;;;;4.15;2.50;;;8.90;99.90;;;;;;5050567;28;20516;-78
2021/05/05 01:00:51;;;;;;;6.20;2.85;;;8.90;99.90;;;;;;5051473;28;20033;-77
2021/05/05 01:03:20;;;;;;;3.03;2.00;;;8.80;99.90;;;;;;5066862;28;20049;-77
2021/05/05 01:05:48;;;;;;;4.10;2.03;;;8.80;99.90;;;;;;5050424;28;20564;-77
2021/05/05 01:08:16;;;;;;;4.97;2.03;;;8.80;99.90;;;;;;5052865;28;20045;-77
2021/05/05 01:10:44;;;;;;;3.42;1.95;;;8.70;99.90;;;;;;5061693;28;20385;-77
2021/05/05 01:13:11;;;;;;;4.15;1.92;;;8.70;99.90;;;;;;5056056;28;20070;-78
2021/05/05 01:15:37;;;;;;;3.25;1.38;;;8.70;99.90;;;;;;5051427;28;20048;-78
2021/05/05 01:18:04;;;;;;;3.33;1.70;;;8.70;99.90;;;;;;5051507;28;20393;-78
2021/05/05 01:20:31;;;;;;;3.05;1.55;;;8.70;99.90;;;;;;5050085;28;20136;-78
2021/05/05 01:22:58;;;;;;;5.07;1.70;;;8.70;99.90;;;;;;5055108;28;20040;-79
2021/05/05 01:25:25;;;;;;;4.00;1.73;;;8.70;99.90;;;;;;5069558;28;20043;-78
2021/05/05 01:27:52;;;;;;;1.92;1.30;;;8.70;99.90;;;;;;5052899;28;20045;-78
2021/05/05 01:30:21;;;;;;;2.92;1.48;;;8.70;99.90;;;;;;5066113;28;20037;-78
2021/05/05 01:32:49;;;;;;;3.60;1.65;;;8.70;99.90;;;;;;5051217;28;20041;-78
2021/05/05 01:35:17;;;;;;;4.05;1.73;;;8.70;99.90;;;;;;5051286;28;20025;-78
2021/05/05 01:37:44;;;;;;;4.53;1.70;;;8.70;99.90;;;;;;5052138;28;20041;-78
2021/05/05 01:40:25;;;;;;;3.60;1.50;;;8.70;99.90;;;;;;5058074;28;20048;-78
2021/05/05 01:42:54;;;;;;;2.15;1.35;;;8.70;99.90;;;;;;5061200;28;20500;-79
2021/05/05 01:45:21;;;;;;;3.42;1.63;;;8.70;99.90;;;;;;5060304;28;20033;-79
2021/05/05 01:47:47;;;;;;;5.00;2.97;;;8.70;99.90;;;;;;5059480;28;20478;-78
2021/05/05 01:50:15;;;;;;;4.72;2.17;;;8.70;99.90;;;;;;5054824;28;20041;-77
2021/05/05 01:52:41;;;;;;;6.93;1.80;;;8.70;99.90;;;;;;5053775;28;20041;-77
2021/05/05 01:55:09;;;;;;;4.57;1.90;;;8.80;99.90;;;;;;5055067;28;20077;-77
2021/05/05 01:57:42;;;;;;;3.40;1.30;;;8.80;99.90;;;;;;5054702;28;20045;-77
2021/05/05 02:00:27;;;;;;;3.95;1.52;;;8.90;99.90;;;;;;5054304;28;20037;-77
2021/05/05 02:03:00;;;;;;;2.80;1.70;;;8.90;99.90;;;;;;5057667;28;20048;-76
2021/05/05 02:05:29;;;;;;;5.03;1.70;;;8.80;99.90;;;;;;5072330;28;20040;-76
2021/05/05 02:08:06;;;;;;;7.05;1.50;;;8.80;99.90;;;;;;5055120;28;20040;-77
2021/05/05 02:10:32;;;;;;;3.97;1.73;;;8.80;99.90;;;;;;5054055;28;20052;-77
2021/05/05 02:12:58;;;;;;;3.83;1.60;;;8.80;99.90;;;;;;5073487;28;20040;-77
2021/05/05 02:15:25;;;;;;;3.55;1.30;;;8.80;99.90;;;;;;5067748;28;20381;-78
2021/05/05 02:17:57;;;;;;;1.65;0.88;;;8.80;99.90;;;;;;5064428;28;20056;-77
2021/05/05 02:20:26;;;;;;;5.20;1.08;;;8.80;99.90;;;;;;5065620;28;20041;-78
2021/05/05 02:22:54;;;;;;;3.50;1.38;;;8.70;99.90;;;;;;5066604;28;20354;-77
2021/05/05 02:25:21;;;;;;;6.15;1.17;;;8.80;99.90;;;;;;5069556;28;20045;-78
2021/05/05 02:27:50;;;;;;;1.98;1.10;;;8.70;99.90;;;;;;5060981;28;20040;-78
2021/05/05 02:30:22;;;;;;;4.65;1.38;;;8.70;99.90;;;;;;5071163;28;20398;-78
2021/05/05 02:32:56;;;;;;;3.30;1.60;;;8.70;99.90;;;;;;5064208;28;20049;-78
2021/05/05 02:35:22;;;;;;;2.80;1.52;;;8.70;99.90;;;;;;5065447;28;20045;-78
2021/05/05 02:37:53;;;;;;;4.60;2.25;;;8.70;99.90;;;;;;5068224;28;20480;-78
2021/05/05 02:40:20;;;;;;;6.50;1.67;;;8.60;99.90;;;;;;5053778;28;20485;-78
2021/05/05 02:42:48;;;;;;;6.10;3.40;;;8.70;99.90;;;;;;5068509;28;20037;-77
2021/05/05 02:45:14;;;;;;;4.50;2.17;;;8.90;99.90;;;;;;5054755;28;20104;-78
2021/05/05 02:47:41;;;;;;;4.18;2.20;;;8.80;99.90;;;;;;5053489;28;20075;-77
2021/05/05 02:50:08;;;;;;;5.35;2.05;;;8.80;99.90;;;;;;5057111;28;20041;-77
2021/05/05 02:52:34;;;;;;;6.15;2.13;;;8.70;99.90;;;;;;5065658;28;20024;-76
2021/05/05 02:55:03;;;;;;;3.42;1.58;;;8.70;99.90;;;;;;5054306;28;20112;-77
2021/05/05 02:57:29;;;;;;;5.72;1.65;;;8.60;99.90;;;;;;5055419;28;20371;-77
2021/05/05 02:59:56;;;;;;;5.78;2.60;;;8.60;99.90;;;;;;5070670;28;20047;-77
2021/05/05 03:02:23;;;;;;;3.50;2.03;;;8.60;99.90;;;;;;5057764;28;20045;-78
2021/05/05 03:04:49;;;;;;;6.05;2.03;;;8.60;99.90;;;;;;5064790;28;20025;-78
2021/05/05 03:07:15;;;;;;;6.35;2.30;;;8.60;99.90;;;;;;5053620;28;20033;-77
2021/05/05 03:09:41;;;;;;;8.07;1.70;;;8.60;99.90;;;;;;5062047;28;20359;-77
2021/05/05 03:12:08;;;;;;;3.65;1.92;;;8.70;99.90;;;;;;5061939;28;20033;-77
2021/05/05 03:14:34;;;;;;;5.70;1.73;;;8.60;99.90;;;;;;5061377;28;20476;-77
2021/05/05 03:17:01;;;;;;;2.03;1.13;;;8.60;99.90;;;;;;5059783;28;20053;-77
2021/05/05 03:19:28;;;;;;;3.53;1.35;;;8.50;99.90;;;;;;5053268;28;20033;-77
2021/05/05 03:21:55;;;;;;;5.30;1.52;;;8.50;99.90;;;;;;5053345;28;20040;-77
2021/05/05 03:24:21;;;;;;;7.43;3.05;;;8.50;99.90;;;;;;5053378;28;20051;-77
2021/05/05 03:26:47;;;;;;;3.03;1.63;;;8.50;99.90;;;;;;5052588;28;20060;-78
2021/05/05 03:29:14;;;;;;;3.75;1.60;;;8.50;99.90;;;;;;5053148;28;20040;-78
2021/05/05 03:31:40;;;;;;;4.55;1.92;;;8.50;99.90;;;;;;5057876;28;20138;-78
2021/05/05 03:34:06;;;;;;;7.88;1.83;;;8.50;99.90;;;;;;5063156;28;20485;-78
2021/05/05 03:36:32;;;;;;;4.55;1.77;;;8.50;99.90;;;;;;5052937;28;20497;-75
2021/05/05 03:39:00;;;;;;;3.78;1.65;;;8.40;99.90;;;;;;5068622;28;20045;-78
2021/05/05 03:41:29;;;;;;;2.85;1.80;;;8.40;99.90;;;;;;5054764;28;20044;-78
2021/05/05 03:43:55;;;;;;;4.15;1.85;;;8.30;99.90;;;;;;5058032;28;20041;-78
2021/05/05 03:46:22;;;;;;;5.32;1.85;;;8.30;99.90;;;;;;5051542;28;20045;-78
2021/05/05 03:48:48;;;;;;;3.35;1.73;;;8.30;99.90;;;;;;5064169;28;20021;-78
2021/05/05 03:51:15;;;;;;;5.93;2.55;;;8.20;99.90;;;;;;5059614;28;20045;-78
2021/05/05 03:53:41;;;;;;;9.45;2.50;;;8.10;99.90;;;;;;5060232;28;20044;-78
2021/05/05 03:56:07;;;;;;;6.93;2.60;;;8.10;99.90;;;;;;5053226;28;20029;-77
2021/05/05 03:58:34;;;;;;;7.70;2.22;;;8.10;99.90;;;;;;5052404;28;20052;-77
2021/05/05 04:01:00;;;;;;;5.60;1.73;;;8.00;99.90;;;;;;5052311;28;20033;-78
2021/05/05 04:03:26;;;;;;;8.55;2.65;;;8.30;98.40;;;;;;5053245;28;20041;-78
2021/05/05 04:05:53;;;;;;;5.65;1.23;;;8.30;96.50;;;;;;5052401;28;20033;-79
2021/05/05 04:08:19;;;;;;;6.45;2.10;;;8.50;90.50;;;;;;5052957;28;20471;-78
2021/05/05 04:10:45;;;;;;;7.47;1.20;;;8.50;88.90;;;;;;5063229;28;20458;-79
2021/05/05 04:13:11;;;;;;;3.97;2.05;;;8.40;87.60;;;;;;5059529;28;20053;-78
2021/05/05 04:15:38;;;;;;;6.00;1.25;;;8.40;85.30;;;;;;5055902;28;20397;-78
2021/05/05 04:18:05;;;;;;;5.15;1.42;;;8.40;87.00;;;;;;5056026;28;20033;-79
2021/05/05 04:20:32;;;;;;;5.45;1.58;;;8.30;85.90;;;;;;5052997;28;20414;-78
2021/05/05 04:22:59;;;;;;;3.80;1.80;;;8.30;87.60;;;;;;5058866;28;20021;-79
2021/05/05 04:25:25;;;;;;;4.95;1.40;;;8.20;88.40;;;;;;5065376;28;20458;-78
2021/05/05 04:27:51;;;;;;;6.63;2.15;;;8.20;87.70;;;;;;5053684;28;20037;-79
2021/05/05 04:30:19;;;;;;;5.00;1.63;;;8.20;86.60;;;;;;5052239;28;20044;-78
2021/05/05 04:32:47;;;;;;;8.68;1.83;;;8.40;86.30;;;;;;5052130;28;20048;-78
2021/05/05 04:35:14;;;;;;;4.35;1.40;;;8.50;85.90;;;;;;5066298;28;20040;-78
2021/05/05 04:37:41;;;;;;;4.47;1.52;;;8.50;85.90;;;;;;5069712;28;20032;-79
2021/05/05 04:40:08;;;;;;;5.32;1.35;;;8.60;87.40;;;;;;5052354;28;20029;-78
2021/05/05 04:42:35;;;;;;;7.90;2.10;;;8.50;89.00;;;;;;5059680;28;20441;-78
2021/05/05 04:45:04;;;;;;;4.55;1.88;;;8.50;87.70;;;;;;5052829;28;20032;-78
2021/05/05 04:47:31;;;;;;;4.22;1.42;;;8.50;87.50;;;;;;5051368;28;20052;-78
2021/05/05 04:49:57;;;;;;;6.13;1.27;;;8.50;87.60;;;;;;5052137;28;20470;-78
2021/05/05 04:52:24;;;;;;;5.47;1.67;;;8.50;85.50;;;;;;5052687;28;20036;-78
2021/05/05 04:54:50;;;;;;;6.85;1.50;;;8.50;82.20;;;;;;5071973;28;20530;-79
2021/05/05 04:57:16;;;;;;;5.35;1.33;;;8.50;80.20;;;;;;5052707;28;20040;-79
2021/05/05 04:59:43;;;;;;;5.93;1.25;;;8.50;81.10;;;;;;5068318;28;20029;-78
2021/05/05 05:02:09;;;;;;;7.38;1.65;;;8.70;78.90;;;;;;5052352;28;20033;-78
2021/05/05 05:04:38;;;;;;;13.45;2.17;;;9.40;77.50;;;;;;5068156;28;20032;-78
2021/05/05 05:07:06;;;;;;;15.00;2.67;;;9.70;74.30;;;;;;5069594;28;20505;-77
2021/05/05 05:09:32;;;;;;;8.30;2.08;;;9.70;73.80;;;;;;5065022;28;20474;-77
2021/05/05 05:11:59;;;;;;;7.53;1.63;;;10.00;71.30;;;;;;5051072;28;20036;-78
2021/05/05 05:14:25;;;;;;;8.95;2.75;;;10.30;70.10;;;;;;5052166;28;20033;-78
2021/05/05 05:16:52;;;;;;;13.55;6.22;;;10.60;68.90;;;;;;5050844;28;20029;-77
2021/05/05 05:19:18;;;;;;;8.32;2.03;;;11.40;65.90;;;;;;5063112;28;20033;-78
2021/05/05 05:21:44;;;;;;;6.53;1.60;;;11.40;64.40;;;;;;5063809;28;20029;-78
2021/05/05 05:24:11;;;;;;;5.95;1.38;;;10.90;65.20;;;;;;5055622;28;20032;-78
2021/05/05 05:26:37;;;;;;;8.35;2.83;;;11.40;63.40;;;;;;5051035;28;20219;-78
2021/05/05 05:29:04;;;;;;;8.95;2.75;;;11.50;63.30;;;;;;5065553;28;20104;-78
2021/05/05 05:31:31;;;;;;;8.27;1.73;;;11.90;61.10;;;;;;5054436;28;20422;-78
2021/05/05 05:33:57;;;;;;;5.85;2.20;;;12.60;60.00;;;;;;5052544;28;20057;-78
2021/05/05 05:36:24;;;;;;;5.82;1.52;;;11.50;61.60;;;;;;5064769;28;20381;-85
2021/05/05 05:38:50;;;;;;;7.22;2.28;;;12.30;59.10;;;;;;5051078;28;20036;-78
2021/05/05 05:41:16;;;;;;;5.88;1.70;;;12.40;59.00;;;;;;5051648;28;20378;-79
2021/05/05 05:43:42;;;;;;;11.13;2.47;;;12.20;58.90;;;;;;5051172;28;20033;-79
2021/05/05 05:46:09;;;;;;;11.52;3.55;;;12.50;58.80;;;;;;5051798;28;20044;-79
2021/05/05 05:48:36;;;;;;;17.95;6.43;;;12.90;58.10;;;;;;5051475;28;20367;-79
2021/05/05 05:51:02;;;;;;;5.68;2.10;;;13.50;56.00;;;;;;5057346;28;20043;-76
2021/05/05 05:53:29;;;;;;;6.47;1.95;;;11.70;59.00;;;;;;5067765;28;20045;-76
2021/05/05 05:55:55;;;;;;;7.00;2.10;;;12.10;59.70;;;;;;5051048;28;20036;-75
2021/05/05 05:58:21;;;;;;;5.03;1.45;;;12.10;58.90;;;;;;5059204;28;20048;-76
2021/05/05 06:00:48;;;;;;;7.25;1.90;;;12.30;58.90;;;;;;5050943;28;20440;-76
2021/05/05 06:03:14;;;;;;;7.20;3.25;;;12.00;59.50;;;;;;5051274;28;20389;-76
2021/05/05 06:05:40;;;;;;;10.98;4.00;;;12.10;59.50;;;;;;5050563;28;20462;-76
2021/05/05 06:08:07;;;;;;;10.77;4.78;;;12.40;58.00;;;;;;5066393;28;20041;-76
2021/05/05 06:10:33;;;;;;;6.97;2.08;;;12.50;59.10;;;;;;5067229;28;20028;-76
2021/05/05 06:13:00;;;;;;;12.77;4.35;;;12.90;57.80;;;;;;5051047;28;20047;-76
2021/05/05 06:15:26;;;;;;;6.93;2.42;;;13.30;57.20;;;;;;5051116;28;20025;-76
2021/05/05 06:17:52;;;;;;;14.07;2.30;;;12.90;56.10;;;;;;5050892;28;20619;-77
2021/05/05 06:20:19;;;;;;;16.05;5.15;;;12.30;58.40;;;;;;5050887;28;20033;-76
2021/05/05 06:22:46;;;;;;;9.95;1.92;;;12.80;57.90;;;;;;5051139;28;20056;-76
2021/05/05 06:25:13;;;;;;;10.90;2.40;;;13.20;55.70;;;;;;5066458;28;20025;-75
2021/05/05 06:27:39;;;;;;;9.35;1.88;;;12.20;57.50;;;;;;5053797;28;20045;-76
2021/05/05 06:30:07;;;;;;;8.52;1.48;;;11.90;58.10;;;;;;5053527;28;20025;-75
2021/05/05 06:32:34;;;;;;;10.82;2.25;;;12.00;58.30;;;;;;5053802;28;20053;-75
2021/05/05 06:35:00;;;;;;;10.60;1.77;;;12.40;58.60;;;;;;5054469;28;20045;-76
2021/05/05 06:37:27;;;;;;;6.30;1.50;;;12.00;58.30;;;;;;5061866;28;20047;-76
2021/05/05 06:39:53;;;;;;;6.30;1.55;;;11.20;59.90;;;;;;5065272;28;20032;-77
2021/05/05 06:42:20;;;;;;;9.93;2.65;;;10.60;61.30;;;;;;5065742;28;20047;-76
2021/05/05 06:44:46;;;;;;;7.55;1.92;;;10.30;63.40;;;;;;5059959;28;20028;-78
2021/05/05 06:47:14;;;;;;;11.32;2.90;;;10.20;62.00;;;;;;5075258;28;20044;-77
2021/05/05 06:49:40;;;;;;;9.52;2.10;;;10.50;62.40;;;;;;5054511;28;20048;-77
2021/05/05 06:52:07;;;;;;;11.75;2.40;;;11.20;60.70;;;;;;5056088;28;20037;-77
2021/05/05 06:54:34;;;;;;;16.42;2.55;;;12.20;58.00;;;;;;5067896;28;20032;-77
2021/05/05 06:57:00;;;;;;;16.33;2.72;;;12.60;56.80;;;;;;5064351;28;20031;-76
2021/05/05 06:59:27;;;;;;;14.73;2.08;;;12.70;56.50;;;;;;5054482;28;20041;-77
2021/05/05 07:01:53;;;;;;;8.85;1.67;;;13.50;55.00;;;;;;5055395;28;20033;-77
2021/05/05 07:04:19;;;;;;;17.13;2.47;;;13.00;55.10;;;;;;5066702;28;20422;-77
2021/05/05 07:06:45;;;;;;;8.43;1.60;;;12.00;56.70;;;;;;5053521;28;20039;-76
2021/05/05 07:09:12;;;;;;;8.73;1.83;;;11.00;58.30;;;;;;5053931;28;20470;-76
2021/05/05 07:11:39;;;;;;;5.32;1.88;;;10.50;59.20;;;;;;5053574;28;20382;-77
2021/05/05 07:14:07;;;;;;;7.15;1.40;;;11.20;58.40;;;;;;5053643;28;20025;-76
2021/05/05 07:16:34;;;;;;;5.93;1.67;;;12.00;56.70;;;;;;5053535;28;20045;-76
2021/05/05 07:19:02;;;;;;;6.00;1.52;;;11.70;58.40;;;;;;5054996;28;20033;-76
2021/05/05 07:21:30;;;;;;;8.45;1.63;;;12.00;56.70;;;;;;5067490;28;20355;-77
2021/05/05 07:23:58;;;;;;;10.57;1.80;;;12.30;55.20;;;;;;5053697;28;20411;-76
2021/05/05 07:26:25;;;;;;;8.07;1.50;;;11.90;56.90;;;;;;5053805;28;20390;-76
2021/05/05 07:28:52;;;;;;;7.03;2.10;;;11.60;57.70;;;;;;5060644;28;20060;-78
2021/05/05 07:31:19;;;;;;;5.60;1.63;;;11.00;58.70;;;;;;5067497;28;20024;-77
2021/05/05 07:33:49;;;;;;;12.10;3.33;;;11.40;57.60;;;;;;5059245;28;20052;-77
2021/05/05 07:36:19;;;;;;;7.60;3.80;;;10.90;59.10;;;;;;5052841;28;20044;-76
2021/05/05 07:44:48;;;;;;;7.78;1.73;;;10.50;59.90;;;;;;5053453;28;20367;-76
2021/05/05 07:47:15;;;;;;;10.13;1.73;;;10.30;60.30;;;;;;5071442;28;20492;-75
2021/05/05 07:49:51;;;;;;;5.80;1.48;;;11.00;59.50;;;;;;5053882;28;20049;-77
2021/05/05 07:52:19;;;;;;;6.43;2.40;;;11.50;57.20;;;;;;5053440;28;20040;-75
2021/05/05 07:54:46;;;;;;;8.10;2.17;;;11.60;58.00;;;;;;5052754;28;20036;-76
2021/05/05 07:57:12;;;;;;;6.65;1.83;;;12.50;55.60;;;;;;5053199;28;20029;-75
2021/05/05 07:59:40;;;;;;;6.68;1.52;;;12.10;55.30;;;;;;5067066;28;20037;-75
2021/05/05 08:02:07;;;;;;;9.27;1.85;;;11.20;57.40;;;;;;5058021;28;20043;-76
2021/05/05 08:04:34;;;;;;;14.30;2.22;;;11.70;57.10;;;;;;5057254;28;20040;-75
2021/05/05 08:07:00;;;;;;;11.02;1.95;;;11.20;57.80;;;;;;5062955;28;20052;-76
2021/05/05 08:09:28;;;;;;;10.35;1.83;;;10.90;58.60;;;;;;5052998;28;20048;-76
2021/05/05 08:11:55;;;;;;;12.07;2.13;;;11.00;57.20;;;;;;5065956;28;20040;-76
2021/05/05 08:14:22;;;;;;;8.65;2.33;;;10.70;57.10;;;;;;5052288;28;20517;-75
2021/05/05 08:16:48;;;;;;;9.65;1.77;;;10.60;58.10;;;;;;5060425;28;20036;-75
2021/05/05 08:19:14;;;;;;;9.25;1.95;;;10.50;57.80;;;;;;5052816;28;20036;-76
2021/05/05 08:21:41;;;;;;;4.82;1.33;;;11.00;57.30;;;;;;5052178;28;20025;-76
2021/05/05 08:24:09;;;;;;;5.88;1.02;;;12.00;56.10;;;;;;5054808;28;20021;-76
2021/05/05 08:26:36;;;;;;;5.93;1.45;;;11.70;54.90;;;;;;5058976;28;20450;-75
2021/05/05 08:29:03;;;;;;;5.00;1.25;;;11.10;55.70;;;;;;5052335;28;20421;-76
2021/05/05 08:31:29;;;;;;;6.10;1.25;;;11.20;56.40;;;;;;5052608;28;20458;-77
2021/05/05 08:33:56;;;;;;;8.60;1.50;;;11.90;55.80;;;;;;5051447;28;20049;-76
2021/05/05 08:36:22;;;;;;;5.45;1.40;;;12.80;53.50;;;;;;5052837;28;20406;-77
2021/05/05 08:38:48;;;;;;;5.65;1.35;;;13.30;52.80;;;;;;5052627;28;20379;-76
2021/05/05 08:41:15;;;;;;;4.72;1.08;;;12.40;52.80;;;;;;5052522;28;20052;-76
2021/05/05 08:43:42;;;;;;;4.28;1.50;;;11.30;53.70;;;;;;5069343;28;20478;-76
2021/05/05 08:46:08;;;;;;;8.02;1.35;;;12.40;53.60;;;;;;5072163;28;20044;-76
2021/05/05 08:48:36;;;;;;;5.82;1.27;;;12.70;51.90;;;;;;5050236;28;20053;-77
2021/05/05 08:51:06;;;;;;;5.10;1.70;;;13.70;50.20;;;;;;5052022;28;20032;-76
2021/05/05 08:53:33;;;;;;;8.55;1.60;;;14.00;50.10;;;;;;5067672;28;20041;-75
2021/05/05 08:55:59;;;;;;;4.88;1.25;;;13.30;49.80;;;;;;5066806;28;20367;-76
2021/05/05 08:58:27;;;;;;;7.88;1.10;;;13.00;50.80;;;;;;5064431;28;20036;-76
2021/05/05 09:00:53;;;;;;;3.97;1.33;;;12.70;51.10;;;;;;5051915;28;20493;-77
2021/05/05 09:03:39;;;;;;;5.47;1.33;;;11.90;51.90;;;;;;5067669;28;20045;-75
2021/05/05 09:06:06;;;;;;;3.33;1.50;;;11.40;52.60;;;;;;5053432;28;20036;-76
2021/05/05 09:08:34;;;;;;;7.72;1.48;;;11.30;52.40;;;;;;5055122;28;20053;-75
2021/05/05 09:11:10;;;;;;;10.55;1.45;;;10.90;53.00;;;;;;5055152;28;20029;-77
2021/05/05 09:13:57;;;;;;;7.18;1.42;;;11.20;52.80;;;;;;5053830;28;20029;-75
2021/05/05 09:16:27;;;;;;;4.47;0.95;;;11.70;52.20;;;;;;5054077;28;20025;-76
2021/05/05 09:19:01;;;;;;;3.25;1.05;;;11.70;53.40;;;;;;5053513;28;20029;-75
2021/05/05 09:21:33;;;;;;;3.40;0.80;;;12.10;54.70;;;;;;5060508;28;20037;-76
2021/05/05 09:24:25;;;;;;;6.45;1.08;;;11.70;54.60;;;;;;5060281;28;20354;-76
2021/05/05 09:26:57;;;;;;;5.53;1.00;;;12.40;52.60;;;;;;5051746;28;20269;-75
2021/05/05 09:29:46;;;;;;;3.90;0.82;;;13.70;51.80;;;;;;5051667;28;20041;-75
2021/05/05 09:32:15;;;;;;;7.63;0.98;;;13.90;49.50;;;;;;5051097;28;20398;-77
2021/05/05 09:34:42;;;;;;;3.80;0.95;;;12.90;48.90;;;;;;5051111;28;20033;-76
2021/05/05 09:37:11;;;;;;;2.80;0.85;;;12.10;50.80;;;;;;5051939;28;20454;-76
2021/05/05 09:39:39;;;;;;;4.80;1.05;;;11.70;52.60;;;;;;5058991;28;20049;-76
2021/05/05 09:42:35;;;;;;;6.00;1.10;;;11.40;54.10;;;;;;5059002;28;20039;-76
2021/05/05 09:45:08;;;;;;;13.95;1.25;;;10.30;59.70;;;;;;5055473;28;20040;-77
2021/05/05 09:47:55;;;;;;;8.18;1.05;;;9.30;64.90;;;;;;5057096;28;20369;-77
2021/05/05 09:50:31;;;;;;;4.18;1.00;;;8.60;67.00;;;;;;5057984;28;20359;-76
2021/05/05 09:53:18;;;;;;;3.70;1.25;;;8.30;68.30;;;;;;5066247;28;20037;-75
2021/05/05 09:56:07;;;;;;;1.80;0.73;;;8.40;72.10;;;;;;5056231;28;20029;-76
2021/05/05 09:58:36;;;;;;;16.13;8.15;;;9.20;69.60;;;;;;5052175;28;20040;-74
2021/05/05 10:01:05;;;;;;;49.38;28.27;;;9.60;68.40;;;;;;5070513;28;20032;-76
2021/05/05 10:03:52;;;;;;;51.20;28.42;;;10.20;64.00;;;;;;5057921;28;20386;-76
2021/05/05 10:06:28;;;;;;;16.20;9.15;;;11.30;60.30;;;;;;5054927;28;20049;-76
2021/05/05 10:09:11;;;;;;;19.83;13.18;;;11.20;60.20;;;;;;5054822;28;20040;-76
2021/05/05 10:11:43;;;;;;;40.22;27.83;;;10.80;59.10;;;;;;5054337;28;20037;-76
2021/05/05 10:14:14;;;;;;;25.77;18.23;;;11.80;57.20;;;;;;5065267;28;20036;-77
2021/05/05 10:16:44;;;;;;;14.82;8.23;;;11.30;57.00;;;;;;5054771;28;20040;-76
2021/05/05 10:19:23;;;;;;;7.15;4.70;;;11.10;58.80;;;;;;5054991;28;20028;-76
2021/05/05 10:22:00;;;;;;;11.73;10.65;;;11.20;58.70;;;;;;5072920;28;20029;-76
2021/05/05 10:24:29;;;;;;;6.35;5.75;;;10.90;60.00;;;;;;5068484;28;20037;-75
2021/05/05 10:26:56;;;;;;;4.55;1.77;;;10.90;60.00;;;;;;5054363;28;20025;-75
2021/05/05 10:29:23;;;;;;;3.72;1.70;;;11.00;58.10;;;;;;5054927;28;20386;-77
2021/05/05 10:31:56;;;;;;;3.30;1.48;;;11.20;58.50;;;;;;5062942;28;20029;-75
2021/05/05 10:34:26;;;;;;;3.17;1.35;;;11.30;58.00;;;;;;5067416;28;20033;-75
2021/05/05 10:36:55;;;;;;;5.53;0.90;;;11.60;58.20;;;;;;5059990;28;20051;-76
2021/05/05 10:39:22;;;;;;;3.00;0.88;;;11.80;56.70;;;;;;5054737;28;20040;-76
2021/05/05 10:42:00;;;;;;;4.68;0.98;;;12.10;55.20;;;;;;5064248;28;20045;-77
2021/05/05 10:44:36;;;;;;;2.75;0.73;;;12.40;54.60;;;;;;5064398;28;20033;-76
2021/05/05 10:47:27;;;;;;;1.90;0.55;;;12.60;53.70;;;;;;5054543;28;20033;-76
2021/05/05 10:52:27;;;;;;;2.30;0.50;;;12.40;53.50;;;;;;5054625;28;20047;-75
2021/05/05 10:54:55;;;;;;;2.53;0.85;;;12.00;55.10;;;;;;5053653;28;20036;-76
2021/05/05 10:57:24;;;;;;;2.05;0.43;;;12.10;54.90;;;;;;5054350;28;20040;-77
2021/05/05 10:59:56;;;;;;;4.45;1.00;;;11.90;54.40;;;;;;5055289;28;20044;-75
2021/05/05 11:02:47;;;;;;;2.17;0.70;;;11.90;55.00;;;;;;5053975;28;20045;-75
2021/05/05 11:05:14;;;;;;;5.25;1.50;;;12.20;54.60;;;;;;5054156;28;20037;-76
2021/05/05 11:07:51;;;;;;;3.58;1.00;;;11.70;53.20;;;;;;5053767;28;20398;-75
2021/05/05 11:10:32;;;;;;;2.35;0.80;;;11.40;53.70;;;;;;5053139;28;20052;-76
2021/05/05 11:13:18;;;;;;;3.53;0.85;;;11.40;54.60;;;;;;5064387;28;20032;-77
2021/05/05 11:15:52;;;;;;;1.60;0.50;;;11.80;53.10;;;;;;5053528;28;20029;-75
2021/05/05 11:18:28;;;;;;;2.72;0.80;;;11.60;53.90;;;;;;5054114;28;20041;-77
2021/05/05 11:21:00;;;;;;;5.30;0.80;;;11.80;53.00;;;;;;5053546;28;20036;-76
2021/05/05 11:23:36;;;;;;;2.70;0.98;;;12.00;53.80;;;;;;5068452;28;20044;-75
2021/05/05 11:26:14;;;;;;;4.32;1.10;;;11.70;54.20;;;;;;5053913;28;20029;-77
2021/05/05 11:28:58;;;;;;;2.92;1.20;;;12.30;54.00;;;;;;5073129;28;20465;-76
2021/05/05 11:31:50;;;;;;;2.58;1.17;;;11.90;52.60;;;;;;5061530;28;20456;-77
2021/05/05 11:34:19;;;;;;;1.85;0.90;;;12.00;52.20;;;;;;5053732;28;20474;-74
2021/05/05 11:36:55;;;;;;;6.07;0.90;;;12.10;52.70;;;;;;5069838;28;20040;-74
2021/05/05 11:39:23;;;;;;;2.58;1.10;;;12.80;51.70;;;;;;5059178;28;20039;-76
2021/05/05 11:42:03;;;;;;;1.67;0.80;;;13.60;51.50;;;;;;5068949;28;20024;-76
2021/05/05 11:44:49;;;;;;;2.70;1.15;;;14.00;50.00;;;;;;5061756;28;20032;-76
2021/05/05 11:47:33;;;;;;;2.10;0.47;;;13.70;49.20;;;;;;5054399;28;20036;-76
2021/05/05 11:50:02;;;;;;;3.20;0.90;;;12.90;49.30;;;;;;5068249;28;20060;-76
2021/05/05 11:52:29;;;;;;;3.05;0.98;;;13.10;50.20;;;;;;5053521;28;20363;-76
2021/05/05 11:55:00;;;;;;;4.68;1.02;;;13.00;49.30;;;;;;5052848;28;20025;-76
2021/05/05 11:57:31;;;;;;;;;;;13.20;48.40;;;;;;5053725;28;20079;-76
2021/05/05 12:00:22;;;;;;;3.72;1.50;;;13.10;48.60;;;;;;5053087;28;19916;-75
2021/05/05 12:02:50;;;;;;;4.78;1.35;;;12.60;49.50;;;;;;5052790;28;20060;-76
2021/05/05 12:05:25;;;;;;;3.35;0.80;;;13.00;49.80;;;;;;5068221;28;20040;-76
2021/05/05 12:08:12;;;;;;;2.30;0.80;;;13.10;47.90;;;;;;5056717;28;20037;-76
2021/05/05 12:10:51;;;;;;;1.42;0.40;;;13.00;49.00;;;;;;5052762;28;20048;-75
2021/05/05 12:13:22;;;;;;;2.08;0.68;;;12.70;48.70;;;;;;5069191;28;20043;-76
2021/05/05 12:18:28;;;;;;;5.97;2.53;;;12.60;49.90;;;;;;5058879;28;20060;-75
2021/05/05 12:21:02;;;;;;;1.05;0.50;;;13.30;48.20;;;;;;5064253;28;20603;-76
2021/05/05 12:23:40;;;;;;;5.82;0.82;;;13.40;44.90;;;;;;5055099;28;20036;-75
2021/05/05 12:26:13;;;;;;;1.83;0.40;;;13.10;46.10;;;;;;5052590;28;20041;-76
2021/05/05 12:28:39;;;;;;;1.08;0.50;;;13.20;45.80;;;;;;5072064;28;20047;-76
2021/05/05 12:31:06;;;;;;;3.35;0.90;;;13.00;45.60;;;;;;5054363;28;20505;-75
2021/05/05 12:33:38;;;;;;;2.15;0.30;;;13.00;46.10;;;;;;5052634;28;20049;-77
2021/05/05 12:36:18;;;;;;;1.98;0.93;;;13.60;45.60;;;;;;5052244;28;20044;-77
2021/05/05 12:38:48;;;;;;;0.55;0.43;;;13.80;45.80;;;;;;5052301;28;20470;-76
2021/05/05 12:41:20;;;;;;;1.17;0.50;;;13.30;46.60;;;;;;5052918;28;20032;-76
2021/05/05 12:43:48;;;;;;;1.83;0.60;;;13.80;46.50;;;;;;5053114;28;20275;-77
2021/05/05 12:46:32;;;;;;;5.18;0.80;;;13.80;45.40;;;;;;5064215;28;20033;-77
2021/05/05 12:48:59;;;;;;;7.80;1.10;;;13.20;47.00;;;;;;5062890;28;20041;-76
2021/05/05 12:51:27;;;;;;;3.55;0.63;;;12.70;47.60;;;;;;5052126;28;20048;-76
2021/05/05 12:53:56;;;;;;;4.47;0.63;;;12.50;49.10;;;;;;5054466;28;20036;-76
2021/05/05 12:56:37;;;;;;;6.53;0.50;;;11.50;50.90;;;;;;5059824;28;20029;-77
2021/05/05 12:59:04;;;;;;;3.50;0.40;;;10.70;53.40;;;;;;5064231;28;20032;-75
2021/05/05 13:01:31;;;;;;;5.07;1.48;;;9.90;60.20;;;;;;5060192;28;20037;-75
2021/05/05 13:03:57;;;;;;;1.63;0.40;;;9.80;62.20;;;;;;5051429;28;20049;-76
2021/05/05 13:06:41;;;;;;;1.13;0.73;;;9.60;63.00;;;;;;5066880;28;20035;-75
2021/05/05 13:09:24;;;;;;;3.05;0.50;;;9.30;67.90;;;;;;5051932;28;20052;-76
2021/05/05 13:12:10;;;;;;;1.33;0.75;;;9.20;66.60;;;;;;5051765;28;20025;-74
2021/05/05 13:14:44;;;;;;;5.65;1.30;;;9.40;69.10;;;;;;5052034;28;20378;-74